Time;durP1;ratioP1;P1;durP2;ratioP2;P2;SDS_P1;SDS_P2;PMS_P1;PMS_P2;Temp;Humidity;BMP_temperature;BMP_pressure;BME280_temperature;BME280_humidity;BME280_pressure;Samples;Min_cycle;Max_cycle;Signal;HPM_P1;HPM_P2
2022/12/03 00:00:47;;;;;;;14.00;7.68;;;;;;;2.35;100.00;98915.91;5030845;28;20021;-74
2022/12/03 00:03:12;;;;;;;14.98;8.02;;;;;;;2.35;100.00;98907.91;5027007;28;20483;-74
2022/12/03 00:05:37;;;;;;;13.90;8.13;;;;;;;2.36;100.00;98901.59;5031954;28;20060;-75
2022/12/03 00:08:03;;;;;;;16.55;8.00;;;;;;;2.42;100.00;98917.00;5031823;28;20013;-75
2022/12/03 00:10:28;;;;;;;11.30;6.43;;;;;;;2.31;100.00;98909.22;5029551;28;20480;-75
2022/12/03 00:12:53;;;;;;;12.63;6.95;;;;;;;2.33;100.00;98923.25;5029757;28;20415;-74
2022/12/03 00:15:19;;;;;;;15.00;7.63;;;;;;;2.27;100.00;98914.97;5029877;28;20032;-75
2022/12/03 00:17:44;;;;;;;12.88;7.57;;;;;;;2.30;100.00;98907.50;5028771;28;20041;-74
2022/12/03 00:20:18;;;;;;;16.25;8.15;;;;;;;2.38;100.00;98910.31;5029612;28;20080;-75
2022/12/03 00:22:43;;;;;;;14.85;7.70;;;;;;;2.40;100.00;98918.16;5032061;28;20092;-75
2022/12/03 00:25:09;;;;;;;13.73;7.47;;;;;;;2.38;100.00;98904.09;5030363;28;20046;-74
2022/12/03 00:27:34;;;;;;;15.85;8.32;;;;;;;2.31;100.00;98898.53;5030154;28;20032;-74
2022/12/03 00:29:59;;;;;;;14.40;7.28;;;;;;;2.37;100.00;98910.44;5030413;28;20030;-75
2022/12/03 00:32:24;;;;;;;14.80;7.90;;;;;;;2.40;100.00;98920.81;5036057;28;20033;-75
2022/12/03 00:34:50;;;;;;;16.35;8.30;;;;;;;2.25;100.00;98903.59;5033658;28;20487;-75
2022/12/03 00:37:15;;;;;;;16.88;8.82;;;;;;;2.34;100.00;98910.75;5030251;28;20412;-74
2022/12/03 00:39:40;;;;;;;18.02;8.20;;;;;;;2.19;100.00;98886.34;5029925;28;20036;-74
2022/12/03 00:42:06;;;;;;;20.40;7.80;;;;;;;2.25;100.00;98895.59;5028399;28;20029;-75
2022/12/03 00:44:31;;;;;;;14.48;7.57;;;;;;;2.27;100.00;98906.97;5031428;28;20372;-74
2022/12/03 00:46:56;;;;;;;19.02;7.65;;;;;;;2.35;100.00;98918.59;5033725;28;20101;-74
2022/12/03 00:49:21;;;;;;;17.00;7.63;;;;;;;2.29;100.00;98916.53;5033525;28;20123;-75
2022/12/03 00:51:47;;;;;;;18.30;9.02;;;;;;;2.29;100.00;98918.34;5034088;28;20043;-75
2022/12/03 00:54:12;;;;;;;18.67;8.82;;;;;;;2.30;100.00;98915.50;5035110;28;20021;-74
2022/12/03 00:56:37;;;;;;;19.92;8.98;;;;;;;2.28;100.00;98908.63;5034461;28;20759;-74
2022/12/03 00:59:03;;;;;;;20.70;9.23;;;;;;;2.40;100.00;98931.50;5033884;28;20025;-75
2022/12/03 01:01:28;;;;;;;18.35;8.85;;;;;;;2.37;100.00;98931.78;5034458;28;20115;-75
2022/12/03 01:03:53;;;;;;;19.30;8.68;;;;;;;2.27;100.00;98914.97;5034483;28;20223;-75
2022/12/03 01:06:18;;;;;;;20.90;8.95;;;;;;;2.38;100.00;98934.34;5033705;28;20028;-75
2022/12/03 01:08:44;;;;;;;14.77;7.88;;;;;;;2.34;100.00;98918.75;5020353;28;20029;-74
2022/12/03 01:11:36;;;;;;;17.98;8.68;;;;;;;2.45;100.00;98941.75;5025958;28;20025;-75
2022/12/03 01:13:54;;;;;;;15.75;7.90;;;;;;;2.37;100.00;98927.28;5034578;28;20448;-74
2022/12/03 01:16:20;;;;;;;15.30;7.88;;;;;;;2.39;100.00;98928.00;5034968;28;20053;-74
2022/12/03 01:18:45;;;;;;;15.75;8.10;;;;;;;2.33;100.00;98919.72;5033217;28;20028;-75
2022/12/03 01:21:11;;;;;;;19.05;9.02;;;;;;;2.41;100.00;98931.38;5034798;28;20384;-75
2022/12/03 01:23:36;;;;;;;17.42;7.97;;;;;;;2.26;100.00;98907.97;5033686;28;20419;-75
2022/12/03 01:26:01;;;;;;;16.05;7.60;;;;;;;2.27;100.00;98909.66;5033256;28;20498;-74
2022/12/03 01:28:28;;;;;;;19.23;9.13;;;;;;;2.39;100.00;98925.31;5033795;28;20029;-75
2022/12/03 01:33:37;;;;;;;19.48;9.60;;;;;;;2.17;100.00;98910.53;5033684;28;20398;-74
2022/12/03 01:36:03;;;;;;;17.52;8.82;;;;;;;2.16;100.00;98913.34;5034960;28;20029;-74
2022/12/03 01:38:28;;;;;;;18.50;9.50;;;;;;;2.06;100.00;98899.19;5034358;28;20053;-74
2022/12/03 01:40:53;;;;;;;20.58;8.88;;;;;;;2.28;100.00;98922.84;5034334;28;20021;-75
2022/12/03 01:43:19;;;;;;;18.88;8.40;;;;;;;2.17;100.00;98912.34;5039766;28;20453;-74
2022/12/03 01:45:44;;;;;;;18.13;9.65;;;;;;;2.17;100.00;98920.34;5030751;28;20505;-74
2022/12/03 01:48:14;;;;;;;20.02;9.85;;;;;;;2.14;100.00;98918.81;5035452;28;20029;-74
2022/12/03 01:50:41;;;;;;;20.48;10.23;;;;;;;2.10;100.00;98908.59;5028021;28;20121;-74
2022/12/03 01:53:10;;;;;;;17.70;9.20;;;;;;;2.16;100.00;98921.34;5030770;28;20399;-76
2022/12/03 01:55:36;;;;;;;;;;;;;;;2.22;100.00;98931.44;5035282;28;20108;-74
2022/12/03 01:58:01;;;;;;;21.10;9.30;;;;;;;2.11;100.00;98920.94;5032743;28;20346;-74
2022/12/03 02:00:28;;;;;;;25.92;10.73;;;;;;;2.25;100.00;98928.47;5031693;28;20634;-75
2022/12/03 02:02:56;;;;;;;20.70;9.32;;;;;;;1.99;100.00;98901.59;5030830;28;20025;-74
2022/12/03 02:05:25;;;;;;;21.67;8.88;;;;;;;2.19;100.00;98934.41;5034319;28;20026;-75
2022/12/03 02:07:50;;;;;;;21.27;10.07;;;;;;;2.19;100.00;98931.72;5032291;28;20032;-75
2022/12/03 02:10:20;;;;;;;22.42;9.80;;;;;;;2.05;100.00;98914.38;5031616;28;20408;-74
2022/12/03 02:12:54;;;;;;;24.95;11.05;;;;;;;2.13;100.00;98911.81;5028214;28;20029;-76
2022/12/03 02:15:19;;;;;;;22.98;10.27;;;;;;;2.11;100.00;98900.44;5026014;28;20096;-74
2022/12/03 02:17:45;;;;;;;22.50;10.10;;;;;;;2.10;100.00;98913.94;5031976;28;20108;-74
2022/12/03 02:20:12;;;;;;;23.45;10.52;;;;;;;2.16;100.00;98918.69;5032759;28;20100;-74
2022/12/03 02:22:47;;;;;;;21.73;9.95;;;;;;;2.00;100.00;98907.81;5034309;28;20117;-74
2022/12/03 02:25:15;;;;;;;23.88;9.95;;;;;;;2.18;100.00;98932.72;5035540;28;20029;-75
2022/12/03 02:27:41;;;;;;;24.70;10.55;;;;;;;2.21;100.00;98927.09;5032195;28;20075;-75
2022/12/03 02:30:09;;;;;;;23.25;10.02;;;;;;;2.23;100.00;98926.94;5032390;28;20033;-74
2022/12/03 02:32:34;;;;;;;23.30;10.82;;;;;;;2.21;100.00;98927.09;5039247;28;20021;-74
2022/12/03 02:35:00;;;;;;;26.10;10.00;;;;;;;2.05;100.00;98910.88;5034088;28;20025;-74
2022/12/03 02:37:31;;;;;;;23.70;10.43;;;;;;;2.19;100.00;98913.03;5036442;28;20514;-75
2022/12/03 02:40:00;;;;;;;23.10;10.88;;;;;;;2.10;100.00;98912.13;5027000;28;20017;-75
2022/12/03 02:42:34;;;;;;;22.45;10.23;;;;;;;2.05;100.00;98913.53;5033141;28;20103;-75
2022/12/03 02:45:04;;;;;;;24.33;10.77;;;;;;;2.02;100.00;98912.00;5016218;28;20030;-74
2022/12/03 02:47:32;;;;;;;23.45;9.85;;;;;;;2.08;100.00;98922.09;5021340;28;20574;-74
2022/12/03 02:49:58;;;;;;;23.88;10.48;;;;;;;1.93;100.00;98918.19;5029766;28;20040;-74
2022/12/03 02:52:24;;;;;;;26.67;10.13;;;;;;;1.97;100.00;98908.94;5029113;28;20029;-75
2022/12/03 02:54:50;;;;;;;25.58;10.02;;;;;;;1.95;100.00;98903.72;5032036;28;20033;-74
2022/12/03 02:57:16;;;;;;;20.63;10.65;;;;;;;2.00;100.00;98913.13;5033346;28;20037;-75
2022/12/03 02:59:44;;;;;;;25.23;10.77;;;;;;;1.95;100.00;98916.25;5031592;28;20030;-75
2022/12/03 03:02:10;;;;;;;22.13;9.95;;;;;;;1.93;100.00;98913.69;5025181;28;20546;-74
2022/12/03 03:04:36;;;;;;;23.02;10.20;;;;;;;2.01;100.00;98926.31;5020942;28;20509;-74
2022/12/03 03:07:01;;;;;;;26.60;11.00;;;;;;;1.97;100.00;98925.78;5032198;28;20108;-74
2022/12/03 03:09:26;;;;;;;27.70;11.35;;;;;;;1.90;100.00;98922.00;5030842;28;20037;-74
2022/12/03 03:11:52;;;;;;;25.77;11.07;;;;;;;1.92;100.00;98919.19;5032106;28;20017;-75
2022/12/03 03:14:17;;;;;;;32.53;11.85;;;;;;;2.00;100.00;98935.31;5028283;28;20021;-75
2022/12/03 03:16:42;;;;;;;33.53;11.50;;;;;;;1.92;100.00;98930.72;5054812;28;20009;-76
2022/12/03 03:19:08;;;;;;;26.83;11.00;;;;;;;1.96;100.00;98931.25;5051950;28;20553;-75
2022/12/03 03:21:33;;;;;;;25.70;11.20;;;;;;;1.97;100.00;98931.13;5049851;28;20052;-74
2022/12/03 03:23:59;;;;;;;27.60;10.50;;;;;;;1.90;100.00;98924.66;5032256;28;20136;-74
2022/12/03 03:26:24;;;;;;;27.45;11.70;;;;;;;2.01;100.00;98941.50;5014632;28;20470;-75
2022/12/03 03:28:50;;;;;;;23.80;11.07;;;;;;;1.89;100.00;98912.34;5033408;28;20037;-75
2022/12/03 03:31:20;;;;;;;27.17;10.95;;;;;;;1.95;100.00;98927.75;5033039;28;20030;-75
2022/12/03 03:33:46;;;;;;;29.95;10.25;;;;;;;2.02;100.00;98930.69;5030246;28;20033;-74
2022/12/03 03:36:13;;;;;;;27.30;11.10;;;;;;;1.98;100.00;98922.09;5031471;28;20057;-74
2022/12/03 03:38:39;;;;;;;26.10;11.15;;;;;;;1.98;100.00;98911.44;5029982;28;20033;-75
2022/12/03 03:41:07;;;;;;;30.73;11.82;;;;;;;2.14;100.00;98932.16;5022312;28;20031;-75
2022/12/03 03:43:35;;;;;;;28.85;11.23;;;;;;;2.12;100.00;98933.28;5032510;28;20554;-74
2022/12/03 03:46:02;;;;;;;29.95;10.80;;;;;;;2.06;100.00;98923.22;5031598;28;20203;-75
2022/12/03 03:48:28;;;;;;;30.63;10.65;;;;;;;2.02;100.00;98912.00;5032026;28;20061;-74
2022/12/03 03:50:54;;;;;;;29.70;11.30;;;;;;;2.18;100.00;98917.56;5028959;28;20056;-74
2022/12/03 03:53:20;;;;;;;25.95;11.00;;;;;;;2.20;100.00;98922.72;5031935;28;20029;-74
2022/12/03 03:55:46;;;;;;;31.85;11.85;;;;;;;2.29;100.00;98929.88;5031110;28;20033;-74
2022/12/03 03:58:12;;;;;;;29.40;11.25;;;;;;;2.32;100.00;98923.38;5032159;28;20022;-75
2022/12/03 04:00:37;;;;;;;31.48;10.77;;;;;;;2.33;100.00;98925.94;5021257;28;20036;-75
2022/12/03 04:03:04;;;;;;;27.35;10.88;;;;;;;2.27;100.00;98923.81;5027530;28;20092;-74
2022/12/03 04:05:29;;;;;;;28.33;12.00;;;;;;;2.17;100.00;98910.53;5023894;28;20389;-75
2022/12/03 04:07:54;;;;;;;27.95;11.35;;;;;;;2.15;100.00;98899.16;5030794;28;20127;-75
2022/12/03 04:13:04;;;;;;;26.80;10.90;;;;;;;2.05;100.00;98881.53;5031180;28;20040;-75
2022/12/03 04:15:30;;;;;;;31.80;11.77;;;;;;;2.02;100.00;98897.81;5027861;28;20018;-74
2022/12/03 04:20:39;;;;;;;31.70;11.65;;;;;;;2.00;100.00;98911.31;5031749;28;20036;-74
2022/12/03 04:23:05;;;;;;;33.92;12.68;;;;;;;2.06;100.00;98915.22;5035522;28;20100;-75
2022/12/03 04:30:58;;;;;;;29.67;10.90;;;;;;;2.10;100.00;98914.78;5034793;28;20064;-75
2022/12/03 04:36:08;;;;;;;30.85;11.65;;;;;;;2.05;100.00;98884.19;5035098;28;20044;-74
2022/12/03 04:38:33;;;;;;;31.30;11.38;;;;;;;2.16;100.00;98908.00;5034967;28;20100;-75
2022/12/03 04:41:02;;;;;;;29.65;12.18;;;;;;;2.11;100.00;98894.25;5033336;28;20029;-75
2022/12/03 04:43:30;;;;;;;28.30;11.68;;;;;;;2.07;100.00;98890.19;5030511;28;20026;-75
2022/12/03 04:45:55;;;;;;;28.02;11.60;;;;;;;2.13;100.00;98898.47;5028168;28;20049;-75
2022/12/03 04:48:20;;;;;;;27.98;11.88;;;;;;;2.15;100.00;98907.19;5033412;28;20056;-74
2022/12/03 04:50:46;;;;;;;29.65;12.07;;;;;;;2.05;100.00;98889.53;5030610;28;20091;-75
2022/12/03 04:53:11;;;;;;;32.15;12.73;;;;;;;2.01;100.00;98882.78;5033460;28;20619;-75
2022/12/03 04:55:36;;;;;;;34.95;13.30;;;;;;;2.05;100.00;98897.53;5047751;28;20117;-75
2022/12/03 04:58:02;;;;;;;30.13;12.48;;;;;;;1.95;100.00;98879.72;5034836;28;20071;-74
2022/12/03 05:00:27;;;;;;;32.67;12.32;;;;;;;2.09;100.00;98913.06;5034140;28;20072;-74
2022/12/03 05:02:52;;;;;;;35.15;12.55;;;;;;;2.11;100.00;98910.28;5035565;28;20483;-75
2022/12/03 05:05:18;;;;;;;30.60;12.02;;;;;;;2.00;100.00;98894.47;5034624;28;20025;-74
2022/12/03 05:07:43;;;;;;;34.13;12.57;;;;;;;2.07;100.00;98898.19;5035735;28;20107;-75
2022/12/03 05:10:10;;;;;;;32.05;11.48;;;;;;;2.16;100.00;98916.03;5034221;28;20030;-74
2022/12/03 05:12:35;;;;;;;34.63;13.07;;;;;;;2.04;100.00;98903.84;5033703;28;20032;-75
2022/12/03 05:15:01;;;;;;;33.30;12.57;;;;;;;1.94;100.00;98880.72;5040077;28;20034;-74
2022/12/03 05:17:26;;;;;;;32.22;13.13;;;;;;;2.13;100.00;98908.31;5033794;28;20034;-74
2022/12/03 05:22:35;;;;;;;38.80;12.65;;;;;;;2.09;100.00;98909.56;5032951;28;20039;-74
2022/12/03 05:25:00;;;;;;;36.00;13.05;;;;;;;1.96;100.00;98893.91;5031413;28;20130;-79
2022/12/03 05:27:26;;;;;;;36.53;12.98;;;;;;;2.08;100.00;98906.06;5037823;28;20112;-80
2022/12/03 05:29:51;;;;;;;33.13;12.65;;;;;;;2.05;100.00;98900.19;5046604;28;20045;-82
2022/12/03 05:32:17;;;;;;;35.45;12.73;;;;;;;1.72;100.00;98849.06;5047589;28;20093;-82
2022/12/03 05:34:43;;;;;;;40.85;13.50;;;;;;;2.01;100.00;98896.97;5057090;28;20089;-81
2022/12/03 05:38:01;;;;;;;33.75;12.48;;;;;;;2.03;100.00;98902.16;5052529;28;20040;-83
2022/12/03 05:40:30;;;;;;;39.70;14.18;;;;;;;1.89;100.00;98858.13;5045117;28;20034;-80
2022/12/03 05:42:59;;;;;;;33.85;13.93;;;;;;;2.03;100.00;98889.66;5048612;28;20124;-82
2022/12/03 05:45:40;;;;;;;41.45;13.43;;;;;;;1.93;100.00;98873.69;5054517;28;20018;-83
2022/12/03 05:48:09;;;;;;;39.20;13.55;;;;;;;1.86;100.00;98861.94;5024747;28;20107;-82
2022/12/03 05:50:36;;;;;;;35.58;12.90;;;;;;;2.12;100.00;98885.25;5023565;28;20033;-80
2022/12/03 05:53:02;;;;;;;38.55;13.27;;;;;;;2.09;100.00;98870.38;5038496;28;20036;-80
2022/12/03 05:55:27;;;;;;;31.92;12.30;;;;;;;2.05;100.00;98854.84;5035934;28;20025;-80
2022/12/03 06:01:15;;;;;;;37.20;12.98;;;;;;;1.73;100.00;98800.09;5037865;28;20071;-80
2022/12/03 06:03:40;;;;;;;37.05;12.00;;;;;;;1.92;100.00;98821.31;5036158;28;20390;-78
2022/12/03 06:06:45;;;;;;;36.38;12.90;;;;;;;2.25;100.00;98867.06;5042435;28;20013;-86
2022/12/03 06:09:10;;;;;;;27.92;11.35;;;;;;;2.19;100.00;98855.16;5040337;28;20038;-81
2022/12/03 06:11:39;;;;;;;36.88;12.50;;;;;;;1.73;100.00;98790.25;5042888;28;20124;-81
2022/12/03 06:14:04;;;;;;;27.42;10.63;;;;;;;2.08;100.00;98852.69;5062248;28;20045;-79
2022/12/03 06:16:29;;;;;;;41.85;13.40;;;;;;;1.57;100.00;98784.69;5042205;28;20029;-81
2022/12/03 06:18:55;;;;;;;38.85;14.23;;;;;;;1.52;100.00;98787.81;5042928;28;20104;-80
2022/12/03 06:21:20;;;;;;;39.75;13.98;;;;;;;1.97;100.00;98872.41;5036400;28;20075;-79
2022/12/03 06:23:45;;;;;;;35.70;13.13;;;;;;;2.06;100.00;98862.69;5034898;28;20498;-77
2022/12/03 06:26:11;;;;;;;38.35;13.10;;;;;;;2.09;100.00;98866.88;5032470;28;20076;-74
2022/12/03 06:28:37;;;;;;;36.08;12.38;;;;;;;2.05;100.00;98869.00;5030678;28;20394;-75
2022/12/03 06:31:02;;;;;;;35.97;13.38;;;;;;;2.12;100.00;98866.56;5030084;28;20111;-76
2022/12/03 06:33:28;;;;;;;35.75;12.55;;;;;;;2.18;100.00;98880.19;5033505;28;20112;-76
2022/12/03 06:35:53;;;;;;;32.50;13.35;;;;;;;2.07;100.00;98866.19;5024192;28;20032;-77
2022/12/03 06:38:18;;;;;;;40.15;14.02;;;;;;;2.24;100.00;98878.75;5034659;28;20105;-76
2022/12/03 06:40:43;;;;;;;34.03;12.60;;;;;;;2.17;100.00;98873.19;5026367;28;21460;-74
2022/12/03 06:43:09;;;;;;;38.17;13.80;;;;;;;2.29;100.00;98887.16;5025460;28;20426;-78
2022/12/03 06:45:34;;;;;;;32.92;12.38;;;;;;;2.30;100.00;98896.00;5025286;28;20037;-73
2022/12/03 06:47:59;;;;;;;35.75;12.40;;;;;;;2.26;100.00;98890.13;5026644;28;20044;-74
2022/12/03 06:50:25;;;;;;;35.65;12.45;;;;;;;2.17;100.00;98883.84;5029457;28;20033;-75
2022/12/03 06:52:50;;;;;;;35.17;12.98;;;;;;;2.18;100.00;98900.69;5025054;28;21778;-76
2022/12/03 06:55:15;;;;;;;38.33;13.85;;;;;;;2.15;100.00;98891.16;5026156;28;20056;-75
2022/12/03 06:57:41;;;;;;;41.97;12.75;;;;;;;2.26;100.00;98906.13;5020945;28;20511;-75
2022/12/03 07:00:07;;;;;;;31.92;13.38;;;;;;;2.32;100.00;98908.22;5025853;28;20087;-75
2022/12/03 07:02:33;;;;;;;37.42;14.15;;;;;;;2.20;100.00;98877.34;5024788;28;20482;-75
2022/12/03 07:04:58;;;;;;;37.67;12.98;;;;;;;2.28;100.00;98896.16;5032665;28;20028;-75
2022/12/03 07:07:23;;;;;;;37.25;13.82;;;;;;;2.35;100.00;98899.91;5024289;28;20573;-74
2022/12/03 07:09:49;;;;;;;34.13;13.38;;;;;;;2.46;100.00;98890.00;5032861;28;20029;-75
2022/12/03 07:12:14;;;;;;;32.05;12.85;;;;;;;2.40;100.00;98894.94;5026047;28;20125;-75
2022/12/03 07:14:39;;;;;;;33.00;13.30;;;;;;;2.42;100.00;98903.66;5026937;28;20025;-75
2022/12/03 07:17:05;;;;;;;31.42;12.65;;;;;;;2.49;100.00;98900.38;5026739;28;20021;-75
2022/12/03 07:19:31;;;;;;;34.50;13.40;;;;;;;2.46;100.00;98895.34;5023453;28;20026;-74
2022/12/03 07:22:02;;;;;;;34.75;12.95;;;;;;;2.38;100.00;98877.41;5021223;28;20044;-80
2022/12/03 07:24:27;;;;;;;36.28;13.70;;;;;;;2.51;100.00;98896.56;5032034;28;20021;-81
2022/12/03 07:26:52;;;;;;;33.53;11.82;;;;;;;2.41;100.00;98879.75;5037832;28;20450;-81
2022/12/03 07:29:18;;;;;;;37.78;13.38;;;;;;;2.49;100.00;98871.00;5033534;28;20112;-80
2022/12/03 07:31:43;;;;;;;32.95;12.57;;;;;;;2.55;100.00;98883.78;5045335;28;20520;-81
2022/12/03 07:34:08;;;;;;;36.47;14.00;;;;;;;2.47;100.00;98857.00;5037672;28;20036;-78
2022/12/03 07:36:34;;;;;;;40.08;13.63;;;;;;;2.56;100.00;98858.75;5035893;28;20029;-80
2022/12/03 07:38:59;;;;;;;35.47;14.32;;;;;;;2.48;100.00;98834.63;5033424;28;20502;-79
2022/12/03 07:41:24;;;;;;;40.38;13.75;;;;;;;2.69;100.00;98866.38;5020855;28;20040;-78
2022/12/03 07:43:50;;;;;;;35.83;12.63;;;;;;;2.72;100.00;98866.91;5022786;28;20025;-74
2022/12/03 07:46:15;;;;;;;36.03;13.38;;;;;;;2.63;100.00;98851.81;5032220;28;20490;-86
2022/12/03 07:48:41;;;;;;;35.55;13.90;;;;;;;2.48;100.00;98847.97;5019745;28;20045;-71
2022/12/03 07:51:06;;;;;;;37.60;14.30;;;;;;;2.59;100.00;98855.75;5029787;28;20034;-71
2022/12/03 07:53:31;;;;;;;35.40;13.13;;;;;;;2.64;100.00;98858.81;5033183;28;20372;-82
2022/12/03 07:55:57;;;;;;;32.25;12.32;;;;;;;2.63;100.00;98857.16;5035177;28;20113;-77
2022/12/03 07:58:22;;;;;;;39.28;14.60;;;;;;;2.59;100.00;98861.09;5030144;28;20483;-76
2022/12/03 08:00:47;;;;;;;36.85;14.70;;;;;;;2.56;100.00;98846.22;5032448;28;20392;-81
2022/12/03 08:03:13;;;;;;;37.20;14.30;;;;;;;2.56;100.00;98856.06;5031941;28;20402;-79
2022/12/03 08:05:38;;;;;;;38.67;14.70;;;;;;;2.73;100.00;98863.28;5031780;28;20030;-80
2022/12/03 08:08:03;;;;;;;41.58;15.82;;;;;;;2.77;100.00;98856.63;5033105;28;20454;-79
2022/12/03 08:10:29;;;;;;;37.65;14.18;;;;;;;2.85;100.00;98864.69;5033527;28;20463;-78
2022/12/03 08:12:58;;;;;;;35.63;14.98;;;;;;;2.66;100.00;98848.84;5030769;28;20590;-80
2022/12/03 08:15:26;;;;;;;36.35;14.40;;;;;;;2.56;100.00;98846.22;5035793;28;20029;-80
2022/12/03 08:17:57;;;;;;;38.30;14.88;;;;;;;2.63;100.00;98855.31;5038670;28;20036;-79
2022/12/03 08:20:27;;;;;;;43.08;15.30;;;;;;;2.74;100.00;98875.63;5032345;28;20064;-73
2022/12/03 08:22:54;;;;;;;38.45;15.88;;;;;;;2.82;100.00;98873.03;5031362;28;20032;-73
2022/12/03 08:25:26;;;;;;;38.70;14.10;;;;;;;2.80;100.00;98875.03;5028417;28;20037;-73
2022/12/03 08:27:56;;;;;;;40.47;15.15;;;;;;;2.82;100.00;98865.00;5031463;28;20026;-74
2022/12/03 08:30:21;;;;;;;;;;;;;;;2.96;100.00;98881.50;5030288;28;20090;-70
2022/12/03 08:32:47;;;;;;;35.42;14.55;;;;;;;2.85;100.00;98869.22;5030827;28;20808;-74
2022/12/03 08:35:20;;;;;;;36.70;15.38;;;;;;;2.81;100.00;98859.84;5026816;28;20033;-73
2022/12/03 08:37:45;;;;;;;39.17;15.20;;;;;;;2.96;100.00;98878.81;5026503;28;20036;-71
2022/12/03 08:40:26;;;;;;;41.58;16.27;;;;;;;2.99;100.00;98891.91;5022224;28;20022;-73
2022/12/03 08:42:52;;;;;;;35.50;14.15;;;;;;;2.88;100.00;98882.25;5028387;28;20190;-72
2022/12/03 08:45:30;;;;;;;33.42;13.93;;;;;;;3.01;100.00;98887.22;5027497;28;20535;-73
2022/12/03 08:48:01;;;;;;;36.10;14.63;;;;;;;2.82;100.00;98857.00;5028886;28;20053;-73
2022/12/03 08:50:32;;;;;;;38.25;15.35;;;;;;;2.88;100.00;98865.41;5020596;28;20030;-73
2022/12/03 08:53:13;;;;;;;32.38;13.80;;;;;;;3.01;100.00;98873.88;5028430;28;20070;-74
2022/12/03 08:55:44;;;;;;;38.53;15.00;;;;;;;3.00;100.00;98883.72;5026889;28;20058;-75
2022/12/03 08:58:23;;;;;;;37.05;13.93;;;;;;;3.00;100.00;98888.22;5038913;28;20024;-74
2022/12/03 09:01:09;;;;;;;;;;;;;;;3.03;100.00;98883.41;5042505;28;20025;-74
2022/12/03 09:03:35;;;;;;;34.97;13.55;;;;;;;3.00;100.00;98858.84;5042007;28;19913;-71
2022/12/03 09:06:01;;;;;;;35.15;13.23;;;;;;;3.04;100.00;98853.03;5025850;28;20064;-74
2022/12/03 09:08:26;;;;;;;35.03;14.07;;;;;;;3.10;100.00;98858.75;5023207;28;20056;-74
2022/12/03 09:10:51;;;;;;;37.65;14.63;;;;;;;3.15;100.00;98851.13;5029111;28;20034;-74
2022/12/03 09:13:16;;;;;;;32.25;13.80;;;;;;;3.25;100.00;98858.06;5025794;28;20030;-71
2022/12/03 09:15:42;;;;;;;32.53;13.20;;;;;;;3.47;100.00;98878.09;5028504;28;20696;-72
2022/12/03 09:18:07;;;;;;;32.80;13.32;;;;;;;3.54;100.00;98859.59;5032777;28;20026;-72
2022/12/03 09:20:32;;;;;;;31.13;13.77;;;;;;;3.50;100.00;98867.06;5035777;28;20018;-73
2022/12/03 09:22:58;;;;;;;29.83;13.82;;;;;;;3.37;100.00;98849.78;5032804;28;20025;-78
2022/12/03 09:25:23;;;;;;;30.98;13.45;;;;;;;3.31;100.00;98851.22;5035014;28;20025;-76
2022/12/03 09:27:48;;;;;;;32.08;13.50;;;;;;;3.44;100.00;98857.00;5033071;28;20029;-76
2022/12/03 09:30:15;;;;;;;30.75;13.85;;;;;;;3.52;100.00;98872.28;5027890;28;20573;-77
2022/12/03 09:32:40;;;;;;;32.38;12.60;;;;;;;3.43;100.00;98870.53;5036265;28;20099;-77
2022/12/03 09:35:06;;;;;;;31.42;13.93;;;;;;;3.24;100.00;98856.34;5033707;28;20456;-77
2022/12/03 09:37:32;;;;;;;29.67;13.13;;;;;;;3.18;100.00;98848.97;5034814;28;20675;-72
2022/12/03 09:39:57;;;;;;;31.30;12.38;;;;;;;3.20;100.00;98849.66;5032033;28;20051;-70
2022/12/03 09:42:24;;;;;;;31.58;13.60;;;;;;;3.13;100.00;98863.78;5035098;28;20037;-70
2022/12/03 09:44:49;;;;;;;30.58;13.68;;;;;;;3.13;100.00;98853.94;5030278;28;20021;-70
2022/12/03 09:47:15;;;;;;;28.38;11.68;;;;;;;3.17;100.00;98865.16;5035991;28;20033;-72
2022/12/03 09:49:41;;;;;;;33.03;13.10;;;;;;;3.09;100.00;98839.19;5027895;28;20038;-70
2022/12/03 09:52:07;;;;;;;25.63;11.93;;;;;;;3.21;100.00;98854.00;5029967;28;20056;-70
2022/12/03 09:54:33;;;;;;;26.45;11.30;;;;;;;3.27;100.00;98856.06;5027183;28;20057;-72
2022/12/03 09:57:01;;;;;;;33.08;13.60;;;;;;;3.26;100.00;98857.03;5025037;28;20037;-70
2022/12/03 09:59:30;;;;;;;27.20;12.05;;;;;;;3.26;100.00;98854.38;5026054;28;20025;-71
2022/12/03 10:01:56;;;;;;;29.80;11.82;;;;;;;3.17;100.00;98836.59;5031784;28;20035;-70
2022/12/03 10:04:23;;;;;;;29.77;12.63;;;;;;;3.18;100.00;98830.25;5025343;28;20821;-71
2022/12/03 10:06:49;;;;;;;26.40;11.55;;;;;;;3.18;100.00;98822.22;5026986;28;20037;-70
2022/12/03 10:09:22;;;;;;;26.02;11.35;;;;;;;3.31;100.00;98829.84;5027753;28;20091;-71
2022/12/03 10:11:48;;;;;;;27.05;11.93;;;;;;;3.45;100.00;98837.28;5025374;28;20037;-70
2022/12/03 10:14:16;;;;;;;28.83;12.27;;;;;;;3.47;100.00;98831.78;5021594;28;20021;-73
2022/12/03 10:16:41;;;;;;;26.23;11.07;;;;;;;3.52;100.00;98816.09;5021512;28;20709;-70
2022/12/03 10:19:16;;;;;;;25.40;11.38;;;;;;;3.50;100.00;98839.50;5025835;28;20071;-70
2022/12/03 10:21:42;;;;;;;22.23;11.07;;;;;;;3.55;100.00;98826.47;5024926;28;20033;-69
2022/12/03 10:24:27;;;;;;;25.73;11.77;;;;;;;3.55;100.00;98831.00;5027373;28;20071;-70
2022/12/03 10:26:55;;;;;;;24.38;11.25;;;;;;;3.61;100.00;98838.38;5035830;28;20514;-69
2022/12/03 10:29:24;;;;;;;30.60;12.38;;;;;;;3.69;100.00;98820.56;5036053;28;20360;-70
2022/12/03 10:32:16;;;;;;;;;;;;;;;3.86;100.00;98832.19;5034998;28;20029;-70
2022/12/03 10:34:41;;;;;;;26.55;11.50;;;;;;;3.82;100.00;98833.47;5025297;28;19913;-72
2022/12/03 10:37:12;;;;;;;25.70;11.88;;;;;;;3.71;100.00;98837.28;5032923;28;20044;-72
2022/12/03 10:39:53;;;;;;;25.40;10.82;;;;;;;3.63;100.00;98813.16;5029033;28;20430;-73
2022/12/03 10:42:19;;;;;;;24.45;10.55;;;;;;;3.59;100.00;98819.84;5034003;28;20095;-73
2022/12/03 10:45:14;;;;;;;26.65;11.90;;;;;;;3.49;100.00;98827.13;4987780;28;20053;-73
2022/12/03 10:47:41;;;;;;;25.15;10.27;;;;;;;3.28;100.00;98809.59;5032941;28;20033;-73
2022/12/03 10:50:17;;;;;;;26.90;11.75;;;;;;;2.98;100.00;98818.88;5048916;28;20033;-73
2022/12/03 10:52:43;;;;;;;25.15;11.18;;;;;;;2.94;100.00;98809.53;5034916;28;20026;-72
2022/12/03 10:55:11;;;;;;;27.88;11.63;;;;;;;3.00;100.00;98816.06;5030685;28;20112;-74
2022/12/03 10:57:37;;;;;;;28.00;11.98;;;;;;;2.77;100.00;98800.50;5034307;28;20039;-73
2022/12/03 11:00:03;;;;;;;29.10;12.45;;;;;;;2.91;100.00;98807.16;5033491;28;20026;-72
2022/12/03 11:02:29;;;;;;;31.60;12.65;;;;;;;2.83;100.00;98793.75;5030977;28;20079;-73
2022/12/03 11:04:54;;;;;;;28.75;12.05;;;;;;;2.98;100.00;98816.22;5027742;28;20047;-73
2022/12/03 11:07:21;;;;;;;29.95;13.23;;;;;;;3.03;100.00;98813.09;5027166;28;20025;-73
2022/12/03 11:09:49;;;;;;;31.20;12.95;;;;;;;2.96;100.00;98791.50;5029393;28;20026;-73
2022/12/03 11:12:33;;;;;;;31.42;12.13;;;;;;;3.03;100.00;98805.06;5032101;28;20047;-74
2022/12/03 11:15:05;;;;;;;27.40;12.45;;;;;;;2.98;100.00;98789.50;5027277;28;20029;-73
2022/12/03 11:17:49;;;;;;;25.95;11.98;;;;;;;3.12;100.00;98788.13;5027004;28;20033;-73
2022/12/03 11:20:24;;;;;;;31.48;12.50;;;;;;;3.17;100.00;98791.16;5010164;28;20030;-73
2022/12/03 11:22:54;;;;;;;27.77;11.57;;;;;;;3.04;100.00;98780.03;5019162;28;20502;-74
2022/12/03 11:25:25;;;;;;;30.38;11.77;;;;;;;3.19;100.00;98791.81;5021955;28;20041;-73
2022/12/03 11:28:13;;;;;;;28.10;12.70;;;;;;;3.21;100.00;98791.66;5028976;28;20029;-75
2022/12/03 11:30:47;;;;;;;23.27;10.77;;;;;;;3.24;100.00;98783.34;5025128;28;20400;-73
2022/12/03 11:33:24;;;;;;;26.45;11.23;;;;;;;3.15;100.00;98789.63;5028805;28;20495;-73
2022/12/03 11:36:02;;;;;;;30.38;11.52;;;;;;;3.11;100.00;98786.41;5031536;28;20057;-73
2022/12/03 11:38:36;;;;;;;31.05;12.15;;;;;;;3.14;100.00;98780.75;5027048;28;20128;-73
2022/12/03 11:41:22;;;;;;;28.30;11.80;;;;;;;3.09;100.00;98769.69;5013254;28;20542;-73
2022/12/03 11:43:56;;;;;;;27.95;11.75;;;;;;;3.19;100.00;98786.47;5028034;28;20804;-73